Terminal Aerodrome Forecast
Issued by NWS

Home | Current Version | Previous Version | Text Only | Print | Product List | Glossary On
Versions: 1 2 3 4 5 6 7 8 9 10 11 12 13 14 15
479
FTUS46 KLOX 261744
TAFWJF
TAF
KWJF 261744Z 2618/2718 24013KT P6SM SKC
     FM262000 24015KT P6SM SKC
     FM262300 24020G30KT P6SM SKC
     FM270400 24015G22KT P6SM SKC
     FM271300 27020G30KT P6SM SKC=

USA.gov is the U.S. government's official web portal to all federal, state and local government web resources and services.